sensor_id;sensor_type;location;lat;lon;timestamp;pressure;altitude;pressure_sealevel;temperature;humidity
77737;BME280;66903;59.926;30.404;2023-02-15T00:04:38;102519.28;;;25.85;30.79
77737;BME280;66903;59.926;30.404;2023-02-15T00:10:06;102521.91;;;25.92;30.50
77737;BME280;66903;59.926;30.404;2023-02-15T00:15:07;102515.31;;;25.91;30.61
77737;BME280;66903;59.926;30.404;2023-02-15T00:20:08;102528.22;;;25.94;30.97
77737;BME280;66903;59.926;30.404;2023-02-15T00:25:08;102520.22;;;25.96;30.71
77737;BME280;66903;59.926;30.404;2023-02-15T00:30:09;102513.94;;;25.99;30.72
77737;BME280;66903;59.926;30.404;2023-02-15T00:35:10;102508.22;;;25.99;30.64
77737;BME280;66903;59.926;30.404;2023-02-15T00:40:22;102512.94;;;26.15;30.71
77737;BME280;66903;59.926;30.404;2023-02-15T00:45:23;102504.53;;;26.03;30.48
77737;BME280;66903;59.926;30.404;2023-02-15T01:02:03;102514.53;;;26.01;30.83
77737;BME280;66903;59.926;30.404;2023-02-15T01:07:23;102516.59;;;26.05;30.44
77737;BME280;66903;59.926;30.404;2023-02-15T01:18:38;102520.31;;;26.06;30.42
77737;BME280;66903;59.926;30.404;2023-02-15T01:29:37;102515.47;;;26.06;30.77
77737;BME280;66903;59.926;30.404;2023-02-15T01:34:37;102491.09;;;26.04;30.82
77737;BME280;66903;59.926;30.404;2023-02-15T01:40:06;102499.19;;;26.12;30.34
77737;BME280;66903;59.926;30.404;2023-02-15T01:45:26;102494.00;;;26.14;30.53
77737;BME280;66903;59.926;30.404;2023-02-15T01:50:33;102498.31;;;26.11;30.65
77737;BME280;66903;59.926;30.404;2023-02-15T02:01:14;102493.16;;;26.13;30.52
77737;BME280;66903;59.926;30.404;2023-02-15T02:06:14;102477.69;;;26.14;30.70
77737;BME280;66903;59.926;30.404;2023-02-15T02:34:16;102470.00;;;26.20;30.49
77737;BME280;66903;59.926;30.404;2023-02-15T02:45:09;102468.53;;;26.17;30.12
77737;BME280;66903;59.926;30.404;2023-02-15T02:50:16;102468.28;;;26.19;30.29
77737;BME280;66903;59.926;30.404;2023-02-15T02:55:58;102459.13;;;26.22;30.42
77737;BME280;66903;59.926;30.404;2023-02-15T03:07:20;102450.25;;;26.23;30.51
77737;BME280;66903;59.926;30.404;2023-02-15T03:13:09;102450.25;;;26.23;30.34
77737;BME280;66903;59.926;30.404;2023-02-15T03:18:42;102460.84;;;26.23;30.17
77737;BME280;66903;59.926;30.404;2023-02-15T03:24:28;102454.81;;;26.24;30.19
77737;BME280;66903;59.926;30.404;2023-02-15T03:35:40;102446.78;;;26.21;30.32
77737;BME280;66903;59.926;30.404;2023-02-15T03:40:45;102454.28;;;26.23;30.18
77737;BME280;66903;59.926;30.404;2023-02-15T03:46:15;102453.69;;;26.26;30.47
77737;BME280;66903;59.926;30.404;2023-02-15T03:51:25;102447.97;;;26.26;30.34
77737;BME280;66903;59.926;30.404;2023-02-15T03:56:35;102446.81;;;26.27;30.29
77737;BME280;66903;59.926;30.404;2023-02-15T04:01:40;102453.13;;;26.29;30.21
77737;BME280;66903;59.926;30.404;2023-02-15T04:06:44;102446.53;;;26.28;30.27
77737;BME280;66903;59.926;30.404;2023-02-15T04:11:44;102447.69;;;26.27;29.88
77737;BME280;66903;59.926;30.404;2023-02-15T04:16:45;102452.78;;;26.15;30.13
77737;BME280;66903;59.926;30.404;2023-02-15T04:21:46;102454.06;;;25.92;29.93
77737;BME280;66903;59.926;30.404;2023-02-15T04:27:05;102455.63;;;25.68;29.85
77737;BME280;66903;59.926;30.404;2023-02-15T04:32:05;102456.34;;;25.54;30.03
77737;BME280;66903;59.926;30.404;2023-02-15T04:37:06;102443.09;;;25.43;30.09
77737;BME280;66903;59.926;30.404;2023-02-15T04:42:07;102455.66;;;25.37;29.96
77737;BME280;66903;59.926;30.404;2023-02-15T04:47:07;102455.50;;;25.27;29.78
77737;BME280;66903;59.926;30.404;2023-02-15T04:52:29;102456.91;;;25.19;29.95
77737;BME280;66903;59.926;30.404;2023-02-15T04:58:00;102457.38;;;25.11;30.11
77737;BME280;66903;59.926;30.404;2023-02-15T05:03:04;102451.06;;;25.09;30.16
77737;BME280;66903;59.926;30.404;2023-02-15T05:08:04;102458.25;;;25.11;29.99
77737;BME280;66903;59.926;30.404;2023-02-15T05:13:05;102463.09;;;25.11;29.88
77737;BME280;66903;59.926;30.404;2023-02-15T05:18:05;102465.03;;;25.05;30.01
77737;BME280;66903;59.926;30.404;2023-02-15T05:23:07;102453.56;;;25.00;29.73
77737;BME280;66903;59.926;30.404;2023-02-15T05:28:10;102462.69;;;24.97;29.74
77737;BME280;66903;59.926;30.404;2023-02-15T05:33:20;102467.25;;;24.98;29.82
77737;BME280;66903;59.926;30.404;2023-02-15T05:38:20;102460.59;;;24.93;29.78
77737;BME280;66903;59.926;30.404;2023-02-15T05:43:33;102462.03;;;24.90;29.45
77737;BME280;66903;59.926;30.404;2023-02-15T05:49:07;102464.84;;;24.85;29.86
77737;BME280;66903;59.926;30.404;2023-02-15T05:54:57;102452.53;;;24.85;29.87
77737;BME280;66903;59.926;30.404;2023-02-15T06:00:00;102453.91;;;24.82;29.92
77737;BME280;66903;59.926;30.404;2023-02-15T06:05:01;102455.72;;;24.88;29.64
77737;BME280;66903;59.926;30.404;2023-02-15T06:10:02;102455.66;;;24.83;29.70
77737;BME280;66903;59.926;30.404;2023-02-15T06:15:03;102462.16;;;24.79;29.85
77737;BME280;66903;59.926;30.404;2023-02-15T06:20:04;102444.13;;;24.73;29.61
77737;BME280;66903;59.926;30.404;2023-02-15T06:25:27;102452.09;;;24.71;29.60
77737;BME280;66903;59.926;30.404;2023-02-15T06:30:36;102450.22;;;24.60;29.83
77737;BME280;66903;59.926;30.404;2023-02-15T06:35:49;102459.06;;;24.59;29.62
77737;BME280;66903;59.926;30.404;2023-02-15T06:40:49;102468.25;;;24.61;29.33
77737;BME280;66903;59.926;30.404;2023-02-15T06:45:50;102465.66;;;24.59;29.17
77737;BME280;66903;59.926;30.404;2023-02-15T06:50:50;102467.91;;;24.57;29.04
77737;BME280;66903;59.926;30.404;2023-02-15T06:55:51;102460.72;;;24.55;29.37
77737;BME280;66903;59.926;30.404;2023-02-15T07:00:51;102466.72;;;24.53;29.15
77737;BME280;66903;59.926;30.404;2023-02-15T07:05:57;102471.03;;;24.56;29.33
77737;BME280;66903;59.926;30.404;2023-02-15T07:11:19;102467.91;;;24.57;29.00
77737;BME280;66903;59.926;30.404;2023-02-15T07:16:44;102468.69;;;24.53;29.05
77737;BME280;66903;59.926;30.404;2023-02-15T07:27:10;102475.88;;;24.55;29.05
77737;BME280;66903;59.926;30.404;2023-02-15T07:32:10;102474.13;;;24.54;29.44
77737;BME280;66903;59.926;30.404;2023-02-15T07:37:10;102477.59;;;24.56;29.01
77737;BME280;66903;59.926;30.404;2023-02-15T07:42:11;102481.06;;;24.58;28.94
77737;BME280;66903;59.926;30.404;2023-02-15T07:47:11;102480.50;;;24.61;29.08
77737;BME280;66903;59.926;30.404;2023-02-15T07:52:15;102490.56;;;24.64;29.16
77737;BME280;66903;59.926;30.404;2023-02-15T07:57:15;102494.28;;;24.64;28.91
77737;BME280;66903;59.926;30.404;2023-02-15T08:02:16;102486.31;;;24.66;28.95
77737;BME280;66903;59.926;30.404;2023-02-15T08:07:16;102502.31;;;24.67;29.29
77737;BME280;66903;59.926;30.404;2023-02-15T08:12:17;102496.59;;;24.67;29.19
77737;BME280;66903;59.926;30.404;2023-02-15T08:17:17;102499.81;;;24.71;28.94
77737;BME280;66903;59.926;30.404;2023-02-15T08:22:18;102499.53;;;24.72;28.98
77737;BME280;66903;59.926;30.404;2023-02-15T08:27:18;102491.03;;;24.77;29.27
77737;BME280;66903;59.926;30.404;2023-02-15T08:32:26;102490.19;;;24.77;28.86
77737;BME280;66903;59.926;30.404;2023-02-15T08:37:27;102497.34;;;24.79;28.92
77737;BME280;66903;59.926;30.404;2023-02-15T08:42:27;102499.09;;;24.80;29.09
77737;BME280;66903;59.926;30.404;2023-02-15T08:47:28;102493.63;;;24.79;29.17
77737;BME280;66903;59.926;30.404;2023-02-15T08:52:28;102488.72;;;24.74;28.79
77737;BME280;66903;59.926;30.404;2023-02-15T08:57:29;102494.44;;;24.74;29.21
77737;BME280;66903;59.926;30.404;2023-02-15T09:02:29;102492.72;;;24.73;29.61
77737;BME280;66903;59.926;30.404;2023-02-15T09:07:30;102483.28;;;24.73;29.16
77737;BME280;66903;59.926;30.404;2023-02-15T09:12:30;102481.53;;;24.72;29.42
77737;BME280;66903;59.926;30.404;2023-02-15T09:17:31;102485.84;;;24.74;29.53
77737;BME280;66903;59.926;30.404;2023-02-15T09:22:31;102480.13;;;24.74;29.54
77737;BME280;66903;59.926;30.404;2023-02-15T09:27:32;102482.41;;;24.72;29.54
77737;BME280;66903;59.926;30.404;2023-02-15T09:32:32;102470.59;;;24.69;29.39
77737;BME280;66903;59.926;30.404;2023-02-15T09:37:33;102470.38;;;24.70;29.31
77737;BME280;66903;59.926;30.404;2023-02-15T09:43:04;102474.69;;;24.73;29.44
77737;BME280;66903;59.926;30.404;2023-02-15T10:19:39;102480.25;;;25.11;29.16
77737;BME280;66903;59.926;30.404;2023-02-15T10:35:26;102474.44;;;25.01;28.72
77737;BME280;66903;59.926;30.404;2023-02-15T10:41:00;102460.13;;;25.01;29.01
77737;BME280;66903;59.926;30.404;2023-02-15T10:58:07;102439.59;;;26.14;28.28
77737;BME280;66903;59.926;30.404;2023-02-15T11:08:37;102432.88;;;26.50;28.36
77737;BME280;66903;59.926;30.404;2023-02-15T11:13:44;102435.75;;;26.50;28.54
77737;BME280;66903;59.926;30.404;2023-02-15T11:18:48;102441.97;;;26.27;28.40
77737;BME280;66903;59.926;30.404;2023-02-15T11:23:51;102445.81;;;26.01;28.59
77737;BME280;66903;59.926;30.404;2023-02-15T11:28:57;102447.38;;;25.77;28.43
77737;BME280;66903;59.926;30.404;2023-02-15T11:34:05;102444.09;;;25.63;28.56
77737;BME280;66903;59.926;30.404;2023-02-15T11:39:12;102443.72;;;25.50;28.86
77737;BME280;66903;59.926;30.404;2023-02-15T11:44:19;102447.91;;;25.37;28.57
77737;BME280;66903;59.926;30.404;2023-02-15T11:49:36;102431.22;;;25.29;28.87
77737;BME280;66903;59.926;30.404;2023-02-15T11:54:41;102434.25;;;25.17;28.72
77737;BME280;66903;59.926;30.404;2023-02-15T11:59:50;102431.19;;;25.24;28.82
77737;BME280;66903;59.926;30.404;2023-02-15T12:05:14;102426.53;;;25.45;29.04
77737;BME280;66903;59.926;30.404;2023-02-15T12:10:22;102428.94;;;25.58;28.79
77737;BME280;66903;59.926;30.404;2023-02-15T12:15:30;102422.41;;;25.67;28.58
77737;BME280;66903;59.926;30.404;2023-02-15T12:20:33;102422.72;;;25.71;28.71
77737;BME280;66903;59.926;30.404;2023-02-15T12:30:38;102426.53;;;25.86;28.82
77737;BME280;66903;59.926;30.404;2023-02-15T12:35:38;102422.84;;;25.91;28.45
77737;BME280;66903;59.926;30.404;2023-02-15T12:40:39;102422.59;;;25.97;28.63
77737;BME280;66903;59.926;30.404;2023-02-15T12:45:40;102416.28;;;26.00;28.37
77737;BME280;66903;59.926;30.404;2023-02-15T12:50:42;102424.44;;;26.13;28.82
77737;BME280;66903;59.926;30.404;2023-02-15T12:56:00;102428.78;;;26.26;28.84
77737;BME280;66903;59.926;30.404;2023-02-15T13:01:14;102440.25;;;26.31;28.35
77737;BME280;66903;59.926;30.404;2023-02-15T13:06:17;102435.69;;;26.35;28.34
77737;BME280;66903;59.926;30.404;2023-02-15T13:11:29;102444.56;;;26.39;28.63
77737;BME280;66903;59.926;30.404;2023-02-15T13:16:36;102442.00;;;26.37;28.36
77737;BME280;66903;59.926;30.404;2023-02-15T13:21:40;102441.41;;;26.35;28.59
77737;BME280;66903;59.926;30.404;2023-02-15T13:26:43;102438.81;;;26.34;28.47
77737;BME280;66903;59.926;30.404;2023-02-15T13:31:45;102435.38;;;26.32;28.50
77737;BME280;66903;59.926;30.404;2023-02-15T13:36:54;102432.50;;;26.32;28.35
77737;BME280;66903;59.926;30.404;2023-02-15T13:47:06;102432.78;;;26.30;28.48
77737;BME280;66903;59.926;30.404;2023-02-15T13:52:22;102434.53;;;26.31;28.63
77737;BME280;66903;59.926;30.404;2023-02-15T13:57:53;102438.53;;;26.30;28.73
77737;BME280;66903;59.926;30.404;2023-02-15T14:03:17;102443.13;;;26.26;28.81
77737;BME280;66903;59.926;30.404;2023-02-15T14:19:16;102435.06;;;26.23;28.99
77737;BME280;66903;59.926;30.404;2023-02-15T14:24:30;102437.63;;;26.24;28.80
77737;BME280;66903;59.926;30.404;2023-02-15T14:35:00;102428.78;;;26.26;28.95
77737;BME280;66903;59.926;30.404;2023-02-15T14:40:29;102429.63;;;26.27;29.01
77737;BME280;66903;59.926;30.404;2023-02-15T14:56:43;102438.19;;;26.16;28.61
77737;BME280;66903;59.926;30.404;2023-02-15T15:01:55;102434.31;;;25.96;28.79
77737;BME280;66903;59.926;30.404;2023-02-15T15:12:14;102441.47;;;25.52;29.04
77737;BME280;66903;59.926;30.404;2023-02-15T15:22:44;102439.13;;;25.17;29.05
77737;BME280;66903;59.926;30.404;2023-02-15T15:27:54;102432.78;;;25.10;29.15
77737;BME280;66903;59.926;30.404;2023-02-15T15:48:40;102433.34;;;24.80;29.37
77737;BME280;66903;59.926;30.404;2023-02-15T15:53:44;102432.75;;;24.78;30.39
77737;BME280;66903;59.926;30.404;2023-02-15T15:58:51;102430.72;;;24.79;30.80
77737;BME280;66903;59.926;30.404;2023-02-15T16:03:55;102430.41;;;24.75;30.58
77737;BME280;66903;59.926;30.404;2023-02-15T16:08:56;102421.44;;;24.67;30.71
77737;BME280;66903;59.926;30.404;2023-02-15T16:13:56;102429.66;;;24.63;30.66
77737;BME280;66903;59.926;30.404;2023-02-15T16:18:57;102420.19;;;24.58;30.83
77737;BME280;66903;59.926;30.404;2023-02-15T16:29:19;102433.63;;;24.57;31.21
77737;BME280;66903;59.926;30.404;2023-02-15T16:34:26;102439.34;;;24.57;31.24
77737;BME280;66903;59.926;30.404;2023-02-15T16:39:28;102430.16;;;24.55;31.18
77737;BME280;66903;59.926;30.404;2023-02-15T16:44:29;102430.16;;;24.55;31.25
77737;BME280;66903;59.926;30.404;2023-02-15T16:49:34;102422.38;;;24.51;31.28
77737;BME280;66903;59.926;30.404;2023-02-15T16:54:34;102412.44;;;24.53;31.23
77737;BME280;66903;59.926;30.404;2023-02-15T16:59:41;102414.13;;;24.54;30.82
77737;BME280;66903;59.926;30.404;2023-02-15T17:04:45;102418.97;;;24.49;30.95
77737;BME280;66903;59.926;30.404;2023-02-15T17:10:00;102423.78;;;24.48;30.91
77737;BME280;66903;59.926;30.404;2023-02-15T17:15:00;102414.63;;;24.46;31.43
77737;BME280;66903;59.926;30.404;2023-02-15T17:20:02;102417.75;;;24.45;31.20
77737;BME280;66903;59.926;30.404;2023-02-15T17:25:03;102414.31;;;24.43;31.76
77737;BME280;66903;59.926;30.404;2023-02-15T17:30:17;102408.63;;;24.48;31.33
77737;BME280;66903;59.926;30.404;2023-02-15T17:35:32;102415.78;;;24.45;31.60
77737;BME280;66903;59.926;30.404;2023-02-15T17:40:34;102426.31;;;24.45;31.61
77737;BME280;66903;59.926;30.404;2023-02-15T17:45:40;102430.28;;;24.44;31.78
77737;BME280;66903;59.926;30.404;2023-02-15T17:50:42;102422.28;;;24.41;31.45
77737;BME280;66903;59.926;30.404;2023-02-15T17:55:43;102416.22;;;24.37;31.35
77737;BME280;66903;59.926;30.404;2023-02-15T18:00:45;102407.38;;;24.39;31.82
77737;BME280;66903;59.926;30.404;2023-02-15T18:06:05;102409.66;;;24.37;32.10
77737;BME280;66903;59.926;30.404;2023-02-15T18:11:24;102411.66;;;24.36;31.91
77737;BME280;66903;59.926;30.404;2023-02-15T18:17:01;102402.53;;;24.39;32.00
77737;BME280;66903;59.926;30.404;2023-02-15T18:22:17;102405.63;;;24.33;31.94
77737;BME280;66903;59.926;30.404;2023-02-15T18:27:18;102402.22;;;24.36;32.16
77737;BME280;66903;59.926;30.404;2023-02-15T18:32:29;102395.69;;;24.40;32.20
77737;BME280;66903;59.926;30.404;2023-02-15T18:37:47;102392.91;;;24.45;32.01
77737;BME280;66903;59.926;30.404;2023-02-15T18:42:49;102390.38;;;24.49;31.83
77737;BME280;66903;59.926;30.404;2023-02-15T18:47:51;102387.25;;;24.50;31.79
77737;BME280;66903;59.926;30.404;2023-02-15T18:58:39;102379.94;;;24.59;32.41
77737;BME280;66903;59.926;30.404;2023-02-15T19:03:49;102392.00;;;24.66;32.36
77737;BME280;66903;59.926;30.404;2023-02-15T19:09:01;102386.66;;;24.70;32.24
77737;BME280;66903;59.926;30.404;2023-02-15T19:14:28;102383.56;;;24.76;31.87
77737;BME280;66903;59.926;30.404;2023-02-15T19:19:29;102372.41;;;24.75;32.09
77737;BME280;66903;59.926;30.404;2023-02-15T19:24:41;102372.19;;;24.81;32.35
77737;BME280;66903;59.926;30.404;2023-02-15T19:29:43;102371.63;;;24.84;32.54
77737;BME280;66903;59.926;30.404;2023-02-15T19:34:50;102368.81;;;24.89;32.90
77737;BME280;66903;59.926;30.404;2023-02-15T19:40:00;102371.75;;;24.94;32.54
77737;BME280;66903;59.926;30.404;2023-02-15T19:45:01;102362.56;;;24.92;31.78
77737;BME280;66903;59.926;30.404;2023-02-15T19:50:01;102370.50;;;24.85;31.14
77737;BME280;66903;59.926;30.404;2023-02-15T19:55:13;102356.41;;;24.79;31.15
77737;BME280;66903;59.926;30.404;2023-02-15T20:00:17;102345.25;;;24.77;31.71
77737;BME280;66903;59.926;30.404;2023-02-15T20:05:21;102340.38;;;24.73;32.40
77737;BME280;66903;59.926;30.404;2023-02-15T20:10:40;102341.09;;;24.90;33.41
77737;BME280;66903;59.926;30.404;2023-02-15T20:15:40;102329.91;;;25.20;33.33
77737;BME280;66903;59.926;30.404;2023-02-15T20:20:42;102318.09;;;25.43;33.11
77737;BME280;66903;59.926;30.404;2023-02-15T20:25:43;102314.72;;;25.56;33.41
77737;BME280;66903;59.926;30.404;2023-02-15T20:30:44;102316.50;;;25.72;33.57
77737;BME280;66903;59.926;30.404;2023-02-15T20:35:46;102321.75;;;25.85;33.96
77737;BME280;66903;59.926;30.404;2023-02-15T20:40:47;102322.66;;;25.96;33.78
77737;BME280;66903;59.926;30.404;2023-02-15T20:46:06;102337.03;;;26.06;33.80
77737;BME280;66903;59.926;30.404;2023-02-15T20:51:17;102324.47;;;26.12;33.43
77737;BME280;66903;59.926;30.404;2023-02-15T20:56:20;102319.84;;;26.11;33.83
77737;BME280;66903;59.926;30.404;2023-02-15T21:01:21;102317.84;;;26.11;33.98
77737;BME280;66903;59.926;30.404;2023-02-15T21:06:22;102317.56;;;26.13;33.83
77737;BME280;66903;59.926;30.404;2023-02-15T21:11:22;102309.84;;;26.13;34.05
77737;BME280;66903;59.926;30.404;2023-02-15T21:16:23;102320.53;;;25.30;29.61
77737;BME280;66903;59.926;30.404;2023-02-15T21:21:29;102320.88;;;21.79;31.42
77737;BME280;66903;59.926;30.404;2023-02-15T21:26:49;102316.00;;;19.82;36.03
77737;BME280;66903;59.926;30.404;2023-02-15T21:32:10;102319.88;;;20.58;37.00
77737;BME280;66903;59.926;30.404;2023-02-15T21:37:31;102315.28;;;21.84;35.74
77737;BME280;66903;59.926;30.404;2023-02-15T21:42:32;102314.03;;;22.65;35.78
77737;BME280;66903;59.926;30.404;2023-02-15T21:47:51;102313.75;;;23.33;35.14
77737;BME280;66903;59.926;30.404;2023-02-15T21:52:52;102320.69;;;23.80;34.48
77737;BME280;66903;59.926;30.404;2023-02-15T21:57:53;102309.16;;;24.13;33.93
77737;BME280;66903;59.926;30.404;2023-02-15T22:02:55;102313.19;;;24.44;35.27
77737;BME280;66903;59.926;30.404;2023-02-15T22:07:57;102308.25;;;24.66;35.49
77737;BME280;66903;59.926;30.404;2023-02-15T22:13:01;102304.47;;;24.87;35.21
77737;BME280;66903;59.926;30.404;2023-02-15T22:18:03;102302.88;;;25.01;35.09
77737;BME280;66903;59.926;30.404;2023-02-15T22:23:04;102306.13;;;25.14;34.48
77737;BME280;66903;59.926;30.404;2023-02-15T22:28:04;102299.03;;;25.22;34.70
77737;BME280;66903;59.926;30.404;2023-02-15T22:33:05;102288.78;;;25.31;34.76
77737;BME280;66903;59.926;30.404;2023-02-15T22:38:05;102295.75;;;25.40;34.69
77737;BME280;66903;59.926;30.404;2023-02-15T22:43:06;102288.31;;;25.44;34.37
77737;BME280;66903;59.926;30.404;2023-02-15T22:48:17;102281.50;;;25.50;34.59
77737;BME280;66903;59.926;30.404;2023-02-15T22:53:45;102271.53;;;25.58;34.25
77737;BME280;66903;59.926;30.404;2023-02-15T23:04:47;102268.38;;;25.59;34.04
77737;BME280;66903;59.926;30.404;2023-02-15T23:09:48;102266.66;;;25.63;33.98
77737;BME280;66903;59.926;30.404;2023-02-15T23:14:48;102264.38;;;25.65;34.11
77737;BME280;66903;59.926;30.404;2023-02-15T23:19:49;102263.25;;;25.66;33.79
77737;BME280;66903;59.926;30.404;2023-02-15T23:24:51;102263.28;;;25.71;33.36
77737;BME280;66903;59.926;30.404;2023-02-15T23:41:48;102243.53;;;25.75;33.52
77737;BME280;66903;59.926;30.404;2023-02-15T23:47:29;102233.50;;;25.77;33.25
77737;BME280;66903;59.926;30.404;2023-02-15T23:52:49;102240.69;;;25.75;33.18
77737;BME280;66903;59.926;30.404;2023-02-15T23:57:50;102235.53;;;25.77;33.29
